createdAt,value
2023-03-02T00:02:13.879Z,14.00
2023-03-02T00:04:40.392Z,13.85
2023-03-02T00:07:10.544Z,13.68
2023-03-02T00:09:38.464Z,14.77
2023-03-02T00:12:06.039Z,14.02
2023-03-02T00:14:32.576Z,14.73
2023-03-02T00:16:59.142Z,14.05
2023-03-02T00:19:25.635Z,14.13
2023-03-02T00:21:52.180Z,13.55
2023-03-02T00:24:18.741Z,12.75
2023-03-02T00:26:45.625Z,13.80
2023-03-02T00:29:12.240Z,14.65
2023-03-02T00:31:38.843Z,14.38
2023-03-02T00:34:05.548Z,14.18
2023-03-02T00:36:32.473Z,15.18
2023-03-02T00:38:59.256Z,13.73
2023-03-02T00:41:25.836Z,14.45
2023-03-02T00:43:52.405Z,13.82
2023-03-02T00:46:22.314Z,14.35
2023-03-02T00:48:49.813Z,14.50
2023-03-02T00:51:16.499Z,13.43
2023-03-02T00:53:43.169Z,13.98
2023-03-02T00:56:10.283Z,14.40
2023-03-02T00:58:37.297Z,15.85
2023-03-02T01:01:10.427Z,14.05
2023-03-02T01:03:37.288Z,13.85
2023-03-02T01:06:04.680Z,12.73
2023-03-02T01:08:31.569Z,13.63
2023-03-02T01:11:01.267Z,13.00
2023-03-02T01:13:28.648Z,13.75
2023-03-02T01:16:03.060Z,13.40
2023-03-02T01:18:30.142Z,13.27
2023-03-02T01:21:14.019Z,13.50
2023-03-02T01:23:40.862Z,14.23
2023-03-02T01:26:07.531Z,14.05
2023-03-02T01:28:34.146Z,13.65
2023-03-02T01:31:02.548Z,13.07
2023-03-02T01:33:29.185Z,13.85
2023-03-02T01:35:55.793Z,14.18
2023-03-02T01:38:22.331Z,14.00
2023-03-02T01:44:39.594Z,13.32
2023-03-02T01:47:13.886Z,14.73
2023-03-02T01:49:46.045Z,12.95
2023-03-02T01:52:13.232Z,13.68
2023-03-02T01:54:42.383Z,13.30
2023-03-02T01:57:10.223Z,14.98
2023-03-02T01:59:40.961Z,14.32
2023-03-02T02:02:10.336Z,16.23
2023-03-02T02:04:39.817Z,14.30
2023-03-02T02:07:09.033Z,14.20
2023-03-02T02:09:40.339Z,14.43
2023-03-02T02:12:12.562Z,13.88
2023-03-02T02:14:39.546Z,13.60
2023-03-02T02:17:06.396Z,14.68
2023-03-02T02:19:44.543Z,13.48
2023-03-02T02:22:11.828Z,14.00
2023-03-02T02:24:51.841Z,14.45
2023-03-02T02:27:18.368Z,14.50
2023-03-02T02:29:49.231Z,13.95
2023-03-02T02:32:24.044Z,13.48
2023-03-02T02:34:58.719Z,14.10
2023-03-02T02:37:38.272Z,15.23
2023-03-02T02:40:09.551Z,14.75
2023-03-02T02:42:40.671Z,13.73
2023-03-02T02:45:17.782Z,13.82
2023-03-02T02:47:44.416Z,14.00
2023-03-02T02:50:24.704Z,14.60
2023-03-02T02:53:19.683Z,14.18
2023-03-02T02:55:49.328Z,14.23
2023-03-02T02:58:25.236Z,14.48
2023-03-02T03:00:53.781Z,13.73
2023-03-02T03:03:32.726Z,14.38
2023-03-02T03:06:01.618Z,14.82
2023-03-02T03:08:46.324Z,14.15
2023-03-02T03:11:16.228Z,15.20
2023-03-02T03:13:43.931Z,13.88
2023-03-02T03:16:14.429Z,14.80
2023-03-02T03:18:46.780Z,14.35
2023-03-02T03:21:13.371Z,14.70
2023-03-02T03:23:39.940Z,13.82
2023-03-02T03:26:06.592Z,14.73
2023-03-02T03:28:33.722Z,14.38
2023-03-02T03:31:00.331Z,14.50
2023-03-02T03:33:27.062Z,14.13
2023-03-02T03:35:53.853Z,14.32
2023-03-02T03:38:20.670Z,14.00
2023-03-02T03:40:47.315Z,13.52
2023-03-02T03:43:15.089Z,14.57
2023-03-02T03:45:41.730Z,13.70
2023-03-02T03:48:08.424Z,13.70
2023-03-02T03:50:35.406Z,14.25
2023-03-02T03:53:03.838Z,13.32
2023-03-02T03:55:31.253Z,13.77
2023-03-02T03:57:57.835Z,13.48
2023-03-02T04:00:24.563Z,14.05
2023-03-02T04:02:51.312Z,13.05
2023-03-02T04:05:18.358Z,13.55
2023-03-02T04:07:45.026Z,14.02
2023-03-02T04:10:12.464Z,13.70
2023-03-02T04:12:40.990Z,13.48
2023-03-02T04:15:10.134Z,13.80
2023-03-02T04:17:36.686Z,13.98
2023-03-02T04:20:06.770Z,13.65
2023-03-02T04:22:33.454Z,13.90
2023-03-02T04:25:00.008Z,13.25
2023-03-02T04:27:26.563Z,13.43
2023-03-02T04:29:53.152Z,13.57
2023-03-02T04:32:20.561Z,12.73
2023-03-02T04:34:47.111Z,13.93
2023-03-02T04:37:15.601Z,13.93
2023-03-02T04:39:43.070Z,13.20
2023-03-02T04:42:09.595Z,13.82
2023-03-02T04:44:36.107Z,13.40
2023-03-02T04:47:02.675Z,14.52
2023-03-02T04:49:29.339Z,13.88
2023-03-02T04:51:55.882Z,13.38
2023-03-02T04:54:26.149Z,13.65
2023-03-02T04:56:53.823Z,14.07
2023-03-02T04:59:25.841Z,12.93
2023-03-02T05:01:54.707Z,13.10
2023-03-02T05:04:21.681Z,13.25
2023-03-02T05:06:48.251Z,14.75
2023-03-02T05:09:15.566Z,13.60
2023-03-02T05:11:42.169Z,13.48
2023-03-02T05:14:11.353Z,13.95
2023-03-02T05:16:39.757Z,13.73
2023-03-02T05:19:08.593Z,13.40
2023-03-02T05:21:35.337Z,12.85
2023-03-02T05:24:03.137Z,12.77
2023-03-02T05:26:29.816Z,13.60
2023-03-02T05:28:56.581Z,12.48
2023-03-02T05:31:29.256Z,12.85
2023-03-02T05:33:55.849Z,13.38
2023-03-02T05:36:23.384Z,14.25
2023-03-02T05:38:50.056Z,14.98
2023-03-02T05:41:16.799Z,14.55
2023-03-02T05:43:43.565Z,13.55
2023-03-02T05:46:10.209Z,14.30
2023-03-02T05:48:36.811Z,13.27
2023-03-02T05:51:03.700Z,13.93
2023-03-02T05:53:30.279Z,13.18
2023-03-02T05:55:56.824Z,12.88
2023-03-02T05:58:23.377Z,12.70
2023-03-02T06:00:50.009Z,12.98
2023-03-02T06:03:17.273Z,12.98
2023-03-02T06:05:43.932Z,13.38
2023-03-02T06:08:10.870Z,13.40
2023-03-02T06:10:37.470Z,13.05
2023-03-02T06:13:04.094Z,13.57
2023-03-02T06:15:30.725Z,12.60
2023-03-02T06:17:57.879Z,13.10
2023-03-02T06:20:24.804Z,12.85
2023-03-02T06:22:51.547Z,13.23
2023-03-02T06:25:23.407Z,12.70
2023-03-02T06:27:53.735Z,13.90
2023-03-02T06:30:23.250Z,11.55
2023-03-02T06:32:49.986Z,13.75
2023-03-02T06:35:16.876Z,13.05
2023-03-02T06:37:44.526Z,12.68
2023-03-02T06:40:13.538Z,12.93
2023-03-02T06:42:41.193Z,12.07
2023-03-02T06:45:08.682Z,12.90
2023-03-02T06:47:35.693Z,12.55
2023-03-02T06:50:02.502Z,12.75
2023-03-02T06:52:29.115Z,12.63
2023-03-02T06:54:56.682Z,13.05
2023-03-02T06:57:23.555Z,13.13
2023-03-02T06:59:50.128Z,12.48
2023-03-02T07:02:16.707Z,12.25
2023-03-02T07:04:43.299Z,12.90
2023-03-02T07:07:10.110Z,12.63
2023-03-02T07:09:36.684Z,13.10
2023-03-02T07:12:03.387Z,12.10
2023-03-02T07:14:29.943Z,12.65
2023-03-02T07:16:57.422Z,12.88
2023-03-02T07:19:24.123Z,12.43
2023-03-02T07:21:50.662Z,12.07
2023-03-02T07:24:17.194Z,12.65
2023-03-02T07:26:43.832Z,11.80
2023-03-02T07:29:10.378Z,12.23
2023-03-02T07:31:37.018Z,12.23
2023-03-02T07:34:03.855Z,11.65
2023-03-02T07:36:30.427Z,12.77
2023-03-02T07:38:57.493Z,12.77
2023-03-02T07:41:24.072Z,11.85
2023-03-02T07:43:50.628Z,11.43
2023-03-02T07:46:17.330Z,12.82
2023-03-02T07:48:44.104Z,12.55
2023-03-02T07:51:10.726Z,11.85
2023-03-02T07:53:40.170Z,12.05
2023-03-02T07:56:09.403Z,12.15
2023-03-02T07:58:36.018Z,12.38
2023-03-02T08:01:03.267Z,12.40
2023-03-02T08:03:29.833Z,13.38
2023-03-02T08:05:56.386Z,13.30
2023-03-02T08:08:22.965Z,13.70
2023-03-02T08:10:49.529Z,12.85
2023-03-02T08:13:16.419Z,12.45
2023-03-02T08:15:42.983Z,12.52
2023-03-02T08:18:09.599Z,12.57
2023-03-02T08:20:37.302Z,13.30
2023-03-02T08:23:03.854Z,12.40
2023-03-02T08:25:30.422Z,12.95
2023-03-02T08:27:56.941Z,12.50
2023-03-02T08:30:23.572Z,12.40
2023-03-02T08:32:50.191Z,13.18
2023-03-02T08:35:17.296Z,13.48
2023-03-02T08:37:43.882Z,12.50
2023-03-02T08:40:11.093Z,13.07
2023-03-02T08:42:37.665Z,13.02
2023-03-02T08:45:04.762Z,12.65
2023-03-02T08:47:32.347Z,12.20
2023-03-02T08:49:58.906Z,13.35
2023-03-02T08:52:25.508Z,14.43
2023-03-02T08:54:52.143Z,14.90
2023-03-02T08:57:20.373Z,13.82
2023-03-02T08:59:47.941Z,14.23
2023-03-02T09:02:14.604Z,12.68
2023-03-02T09:04:41.441Z,12.90
2023-03-02T09:07:09.509Z,12.77
2023-03-02T09:09:36.397Z,13.95
2023-03-02T09:12:03.007Z,13.20
2023-03-02T09:14:29.619Z,13.02
2023-03-02T09:16:56.293Z,13.38
2023-03-02T09:19:22.915Z,13.00
2023-03-02T09:21:49.719Z,12.93
2023-03-02T09:24:17.405Z,12.88
2023-03-02T09:26:44.241Z,13.00
2023-03-02T09:29:11.000Z,13.20
2023-03-02T09:31:38.310Z,13.88
2023-03-02T09:34:05.775Z,13.20
2023-03-02T09:36:32.733Z,13.15
2023-03-02T09:38:59.416Z,14.05
2023-03-02T09:41:40.403Z,13.15
2023-03-02T09:44:31.585Z,12.98
2023-03-02T09:47:05.371Z,14.00
2023-03-02T09:50:09.603Z,12.77
2023-03-02T09:52:40.652Z,12.02
2023-03-02T09:55:19.923Z,13.40
2023-03-02T09:57:47.002Z,12.30
2023-03-02T10:00:23.342Z,13.80
2023-03-02T10:02:54.466Z,13.98
2023-03-02T10:05:28.919Z,12.75
2023-03-02T10:07:57.829Z,13.25
2023-03-02T10:10:36.983Z,14.48
2023-03-02T10:13:26.474Z,12.20
2023-03-02T10:15:53.083Z,12.40
2023-03-02T10:18:48.410Z,13.50
2023-03-02T10:21:29.620Z,12.77
2023-03-02T10:24:12.325Z,12.50
2023-03-02T10:26:42.058Z,12.63
2023-03-02T10:29:46.029Z,12.82
2023-03-02T10:32:23.419Z,12.30
2023-03-02T10:34:52.435Z,12.38
2023-03-02T10:37:22.798Z,12.85
2023-03-02T10:39:49.677Z,12.75
2023-03-02T10:42:41.822Z,13.30
2023-03-02T10:45:30.995Z,12.57
2023-03-02T10:48:02.021Z,12.45
2023-03-02T10:50:30.514Z,12.45
2023-03-02T10:53:01.110Z,12.07
2023-03-02T10:55:28.746Z,12.45
2023-03-02T10:58:05.459Z,12.30
2023-03-02T11:00:33.791Z,11.45
2023-03-02T11:03:21.450Z,11.65
2023-03-02T11:05:48.256Z,11.57
2023-03-02T11:08:24.117Z,11.55
2023-03-02T11:11:00.825Z,12.07
2023-03-02T11:13:34.041Z,11.10
2023-03-02T11:16:22.181Z,11.27
2023-03-02T11:18:57.836Z,11.70
2023-03-02T11:21:45.175Z,11.50
2023-03-02T11:24:36.057Z,10.90
2023-03-02T11:27:03.392Z,11.10
2023-03-02T11:29:52.070Z,11.77
2023-03-02T11:32:22.574Z,12.10
2023-03-02T11:34:57.627Z,11.27
2023-03-02T11:37:30.115Z,11.27
2023-03-02T11:40:17.998Z,10.98
2023-03-02T11:42:45.642Z,11.27
2023-03-02T11:45:15.416Z,11.10
2023-03-02T11:47:54.303Z,11.15
2023-03-02T11:50:26.087Z,10.82
2023-03-02T11:52:58.543Z,10.75
2023-03-02T11:55:28.716Z,11.35
2023-03-02T12:00:31.116Z,10.75
2023-03-02T12:02:59.377Z,10.90
2023-03-02T12:05:29.223Z,10.77
2023-03-02T12:08:08.516Z,10.77
2023-03-02T12:10:42.407Z,11.63
2023-03-02T12:13:17.111Z,11.70
2023-03-02T12:15:46.774Z,11.25
2023-03-02T12:18:22.057Z,10.65
2023-03-02T12:23:41.168Z,11.07
2023-03-02T12:26:20.273Z,10.07
2023-03-02T12:29:09.846Z,11.32
2023-03-02T12:31:47.255Z,11.63
2023-03-02T12:34:32.473Z,11.18
2023-03-02T12:37:04.359Z,10.70
2023-03-02T12:39:56.429Z,10.93
2023-03-02T12:42:44.515Z,11.25
2023-03-02T12:45:11.714Z,10.45
2023-03-02T12:47:41.401Z,11.65
2023-03-02T12:50:19.883Z,10.98
2023-03-02T12:53:04.031Z,11.60
2023-03-02T12:55:30.979Z,11.02
2023-03-02T12:58:02.964Z,10.77
2023-03-02T13:00:32.767Z,10.65
2023-03-02T13:03:02.122Z,9.63
2023-03-02T13:05:32.088Z,10.80
2023-03-02T13:08:04.191Z,10.50
2023-03-02T13:10:38.456Z,10.13
2023-03-02T13:13:21.017Z,8.73
2023-03-02T13:15:57.230Z,9.73
2023-03-02T13:18:27.150Z,8.88
2023-03-02T13:20:55.093Z,8.30
2023-03-02T13:23:21.656Z,8.10
2023-03-02T13:25:54.413Z,10.25
2023-03-02T13:28:32.463Z,8.60
2023-03-02T13:31:07.214Z,8.00
2023-03-02T13:33:42.359Z,8.40
2023-03-02T13:36:16.966Z,8.30
2023-03-02T13:38:57.100Z,8.02
2023-03-02T13:41:25.987Z,8.50
2023-03-02T13:43:52.841Z,8.73
2023-03-02T13:46:20.045Z,8.98
2023-03-02T13:49:09.184Z,9.07
2023-03-02T13:51:40.866Z,9.25
2023-03-02T13:54:22.780Z,8.63
2023-03-02T13:56:51.302Z,8.82
2023-03-02T13:59:20.041Z,9.15
2023-03-02T14:01:47.388Z,9.43
2023-03-02T14:04:17.533Z,9.95
2023-03-02T14:06:45.347Z,10.05
2023-03-02T14:09:12.055Z,9.90
2023-03-02T14:11:49.111Z,9.80
2023-03-02T14:14:24.668Z,9.90
2023-03-02T14:16:51.429Z,10.40
2023-03-02T14:19:18.531Z,10.63
2023-03-02T14:21:46.542Z,10.98
2023-03-02T14:24:13.249Z,10.25
2023-03-02T14:26:47.135Z,11.20
2023-03-02T14:29:28.932Z,11.02
2023-03-02T14:31:56.870Z,10.70
2023-03-02T14:34:23.575Z,10.10
2023-03-02T14:36:53.468Z,9.75
2023-03-02T14:39:22.191Z,10.38
2023-03-02T14:45:42.464Z,10.43
2023-03-02T14:48:08.984Z,10.43
2023-03-02T14:50:40.375Z,9.95
2023-03-02T14:53:12.510Z,11.70
2023-03-02T14:55:40.998Z,12.00
2023-03-02T14:58:18.111Z,11.38
2023-03-02T15:00:45.115Z,11.00
2023-03-02T15:03:22.448Z,11.88
2023-03-02T15:06:00.880Z,11.13
2023-03-02T15:08:29.064Z,11.50
2023-03-02T15:10:55.973Z,11.82
2023-03-02T15:13:22.550Z,11.88
2023-03-02T15:15:49.938Z,11.60
2023-03-02T15:18:19.549Z,11.25
2023-03-02T15:20:46.337Z,11.40
2023-03-02T15:23:12.924Z,10.75
2023-03-02T15:25:39.626Z,10.90
2023-03-02T15:28:06.234Z,11.00
2023-03-02T15:30:32.782Z,11.73
2023-03-02T15:32:59.477Z,11.38
2023-03-02T15:35:27.793Z,11.65
2023-03-02T15:37:55.577Z,11.82
2023-03-02T15:40:22.129Z,11.70
2023-03-02T15:42:48.916Z,11.98
2023-03-02T15:45:15.507Z,11.48
2023-03-02T15:47:42.118Z,12.30
2023-03-02T15:50:09.797Z,11.00
2023-03-02T15:52:36.382Z,12.40
2023-03-02T15:55:03.414Z,11.18
2023-03-02T15:57:29.986Z,11.70
2023-03-02T15:59:56.591Z,12.25
2023-03-02T16:02:23.094Z,11.63
2023-03-02T16:04:49.624Z,11.90
2023-03-02T16:07:16.139Z,11.68
2023-03-02T16:09:45.176Z,12.65
2023-03-02T16:12:11.750Z,12.10
2023-03-02T16:14:38.310Z,11.50
2023-03-02T16:17:04.907Z,12.02
2023-03-02T16:19:32.155Z,11.05
2023-03-02T16:21:58.888Z,11.52
2023-03-02T16:24:25.582Z,10.82
2023-03-02T16:26:53.073Z,10.55
2023-03-02T16:29:19.750Z,10.70
2023-03-02T16:31:47.258Z,10.32
2023-03-02T16:34:14.208Z,10.25
2023-03-02T16:36:42.049Z,10.35
2023-03-02T16:39:10.521Z,9.75
2023-03-02T16:41:39.468Z,9.65
2023-03-02T16:44:06.676Z,10.32
2023-03-02T16:46:36.562Z,10.23
2023-03-02T16:49:04.025Z,10.13
2023-03-02T16:51:30.602Z,10.23
2023-03-02T16:53:57.332Z,10.13
2023-03-02T16:56:24.143Z,9.45
2023-03-02T16:58:50.662Z,9.40
2023-03-02T17:01:20.266Z,9.77
2023-03-02T17:03:47.856Z,9.00
2023-03-02T17:06:16.271Z,8.63
2023-03-02T17:08:43.041Z,8.80
2023-03-02T17:11:09.990Z,9.15
2023-03-02T17:13:36.698Z,9.18
2023-03-02T17:16:03.599Z,8.95
2023-03-02T17:18:30.700Z,9.15
2023-03-02T17:20:58.705Z,9.43
2023-03-02T17:23:27.077Z,9.65
2023-03-02T17:25:54.458Z,9.48
2023-03-02T17:28:21.472Z,9.10
2023-03-02T17:30:48.140Z,10.18
2023-03-02T17:33:14.959Z,11.60
2023-03-02T17:35:42.464Z,12.25
2023-03-02T17:38:09.296Z,11.35
2023-03-02T17:40:35.978Z,10.95
2023-03-02T17:43:02.821Z,10.20
2023-03-02T17:45:29.665Z,11.20
2023-03-02T17:47:57.906Z,10.30
2023-03-02T17:50:25.037Z,10.65
2023-03-02T17:52:51.684Z,11.23
2023-03-02T17:55:18.387Z,11.23
2023-03-02T17:57:45.064Z,11.85
2023-03-02T18:00:16.261Z,11.70
2023-03-02T18:02:42.903Z,11.10
2023-03-02T18:05:10.481Z,10.75
2023-03-02T18:07:37.580Z,9.70
2023-03-02T18:10:06.931Z,10.32
2023-03-02T18:12:34.588Z,9.57
2023-03-02T18:15:01.373Z,9.00
2023-03-02T18:17:28.312Z,10.30
2023-03-02T18:19:55.005Z,9.25
2023-03-02T18:22:21.984Z,10.18
2023-03-02T18:24:50.573Z,9.95
2023-03-02T18:27:17.543Z,10.07
2023-03-02T18:29:44.315Z,9.98
2023-03-02T18:32:11.542Z,8.95
2023-03-02T18:34:40.927Z,9.75
2023-03-02T18:37:08.172Z,9.57
2023-03-02T18:39:35.106Z,9.93
2023-03-02T18:42:01.794Z,9.40
2023-03-02T18:44:31.121Z,10.13
2023-03-02T18:46:58.583Z,9.65
2023-03-02T18:49:25.549Z,10.10
2023-03-02T18:51:53.006Z,10.10
2023-03-02T18:54:19.630Z,9.63
2023-03-02T18:56:46.359Z,12.50
2023-03-02T18:59:13.886Z,11.82
2023-03-02T19:01:40.764Z,10.40
2023-03-02T19:04:07.447Z,11.15
2023-03-02T19:06:34.543Z,12.15
2023-03-02T19:09:01.266Z,11.32
2023-03-02T19:15:10.421Z,14.18
2023-03-02T19:17:39.604Z,13.85
2023-03-02T19:20:07.518Z,14.48
2023-03-02T19:22:34.601Z,12.82
2023-03-02T19:25:01.186Z,14.15
2023-03-02T19:27:27.835Z,12.38
2023-03-02T19:29:54.551Z,11.77
2023-03-02T19:32:21.442Z,17.23
2023-03-02T19:34:48.683Z,18.73
2023-03-02T19:37:15.408Z,12.20
2023-03-02T19:39:42.357Z,12.00
2023-03-02T19:42:09.458Z,10.00
2023-03-02T19:44:36.456Z,11.15
2023-03-02T19:47:04.176Z,11.70
2023-03-02T19:49:30.702Z,15.40
2023-03-02T19:51:58.892Z,12.00
2023-03-02T19:54:25.785Z,12.05
2023-03-02T19:56:53.821Z,14.07
2023-03-02T19:59:22.029Z,11.52
2023-03-02T20:01:51.018Z,12.77
2023-03-02T20:04:18.513Z,11.57
2023-03-02T20:06:45.561Z,13.18
2023-03-02T20:09:14.437Z,14.65
2023-03-02T20:11:41.009Z,13.45
2023-03-02T20:14:07.587Z,11.48
2023-03-02T20:16:35.549Z,12.77
2023-03-02T20:19:03.249Z,12.30
2023-03-02T20:21:31.367Z,12.05
2023-03-02T20:23:58.410Z,12.93
2023-03-02T20:26:26.521Z,15.68
2023-03-02T20:28:55.327Z,16.52
2023-03-02T20:31:24.468Z,14.00
2023-03-02T20:33:54.201Z,13.55
2023-03-02T20:36:28.024Z,13.77
2023-03-02T20:39:00.443Z,13.25
2023-03-02T20:41:27.394Z,12.45
2023-03-02T20:43:54.340Z,11.38
2023-03-02T20:46:25.102Z,11.45
2023-03-02T20:48:52.731Z,10.85
2023-03-02T20:51:20.482Z,9.40
2023-03-02T20:53:47.149Z,9.32
2023-03-02T20:56:15.204Z,10.20
2023-03-02T20:58:43.305Z,9.25
2023-03-02T21:01:11.332Z,10.55
2023-03-02T21:03:38.548Z,9.77
2023-03-02T21:06:07.267Z,9.52
2023-03-02T21:08:38.569Z,9.20
2023-03-02T21:11:10.629Z,9.77
2023-03-02T21:13:39.043Z,9.00
2023-03-02T21:16:08.404Z,10.38
2023-03-02T21:18:35.308Z,10.05
2023-03-02T21:21:02.812Z,9.45
2023-03-02T21:23:29.469Z,11.23
2023-03-02T21:25:56.919Z,11.25
2023-03-02T21:28:23.564Z,11.35
2023-03-02T21:30:50.276Z,13.07
2023-03-02T21:33:16.906Z,11.38
2023-03-02T21:35:46.196Z,11.85
2023-03-02T21:38:13.251Z,11.85
2023-03-02T21:40:45.628Z,11.85
2023-03-02T21:43:13.192Z,11.48
2023-03-02T21:45:41.154Z,11.48
2023-03-02T21:48:08.488Z,11.30
2023-03-02T21:50:37.868Z,12.52
2023-03-02T21:53:05.169Z,11.43
2023-03-02T21:55:32.923Z,10.93
2023-03-02T21:58:00.113Z,11.35
2023-03-02T22:00:32.851Z,12.13
2023-03-02T22:03:00.600Z,12.15
2023-03-02T22:05:27.808Z,11.75
2023-03-02T22:07:55.062Z,11.52
2023-03-02T22:10:37.913Z,11.10
2023-03-02T22:13:13.474Z,10.85
2023-03-02T22:15:41.484Z,11.18
2023-03-02T22:18:16.354Z,12.07
2023-03-02T22:20:45.334Z,12.10
2023-03-02T22:23:14.383Z,11.48
2023-03-02T22:25:43.408Z,10.93
2023-03-02T22:28:22.525Z,11.23
2023-03-02T22:30:53.633Z,11.68
2023-03-02T22:33:23.586Z,12.07
2023-03-02T22:35:51.592Z,11.55
2023-03-02T22:38:22.843Z,11.90
2023-03-02T22:40:49.566Z,12.18
2023-03-02T22:43:24.777Z,11.82
2023-03-02T22:46:15.726Z,11.65
2023-03-02T22:48:44.920Z,11.32
2023-03-02T22:51:27.843Z,11.35
2023-03-02T22:53:56.783Z,12.27
2023-03-02T22:56:28.578Z,12.30
2023-03-02T22:58:56.776Z,12.82
2023-03-02T23:01:24.837Z,11.85
2023-03-02T23:03:54.936Z,11.45
2023-03-02T23:06:33.195Z,12.32
2023-03-02T23:09:02.160Z,12.30
2023-03-02T23:11:31.735Z,12.48
2023-03-02T23:14:01.729Z,12.98
2023-03-02T23:16:34.016Z,12.38
2023-03-02T23:19:01.631Z,13.00
2023-03-02T23:21:38.715Z,13.98
2023-03-02T23:24:07.376Z,14.10
2023-03-02T23:26:34.556Z,14.50
2023-03-02T23:29:01.273Z,13.60
2023-03-02T23:31:27.864Z,13.85
2023-03-02T23:33:54.527Z,12.82
2023-03-02T23:36:21.317Z,13.68
2023-03-02T23:38:48.864Z,14.25
2023-03-02T23:41:16.063Z,13.63
2023-03-02T23:43:42.762Z,14.30
2023-03-02T23:46:13.823Z,14.05
2023-03-02T23:48:41.784Z,14.95
2023-03-02T23:51:08.866Z,14.82
2023-03-02T23:53:35.539Z,14.68
2023-03-02T23:56:02.317Z,14.73
2023-03-02T23:58:28.960Z,13.95
